sensor_id;sensor_type;location;lat;lon;timestamp;P1;durP1;ratioP1;P2;durP2;ratioP2
22812;SDS011;11573;51.334;3.244;2024-02-26T00:02:16;4.53;;;0.95;;
22812;SDS011;11573;51.334;3.244;2024-02-26T00:04:44;2.28;;;1.00;;
22812;SDS011;11573;51.334;3.244;2024-02-26T00:07:11;6.10;;;2.08;;
22812;SDS011;11573;51.334;3.244;2024-02-26T00:09:38;0.32;;;0.32;;
22812;SDS011;11573;51.334;3.244;2024-02-26T00:12:05;1.83;;;1.33;;
22812;SDS011;11573;51.334;3.244;2024-02-26T00:14:32;0.70;;;0.70;;
22812;SDS011;11573;51.334;3.244;2024-02-26T00:16:59;5.28;;;2.00;;
22812;SDS011;11573;51.334;3.244;2024-02-26T00:19:26;1.30;;;1.15;;
22812;SDS011;11573;51.334;3.244;2024-02-26T00:21:53;0.77;;;0.77;;
22812;SDS011;11573;51.334;3.244;2024-02-26T00:24:22;3.55;;;1.95;;
22812;SDS011;11573;51.334;3.244;2024-02-26T00:26:49;3.92;;;0.60;;
22812;SDS011;11573;51.334;3.244;2024-02-26T00:29:19;4.75;;;1.77;;
22812;SDS011;11573;51.334;3.244;2024-02-26T00:31:47;1.23;;;0.93;;
22812;SDS011;11573;51.334;3.244;2024-02-26T00:34:14;3.58;;;2.13;;
22812;SDS011;11573;51.334;3.244;2024-02-26T00:36:41;1.45;;;1.35;;
22812;SDS011;11573;51.334;3.244;2024-02-26T00:39:08;0.88;;;0.60;;
22812;SDS011;11573;51.334;3.244;2024-02-26T00:41:41;2.85;;;1.75;;
22812;SDS011;11573;51.334;3.244;2024-02-26T00:44:09;3.17;;;2.58;;
22812;SDS011;11573;51.334;3.244;2024-02-26T00:46:36;2.08;;;1.88;;
22812;SDS011;11573;51.334;3.244;2024-02-26T00:49:03;3.72;;;1.27;;
22812;SDS011;11573;51.334;3.244;2024-02-26T00:51:30;1.35;;;1.00;;
22812;SDS011;11573;51.334;3.244;2024-02-26T00:53:57;5.20;;;2.72;;
22812;SDS011;11573;51.334;3.244;2024-02-26T00:56:24;0.85;;;0.85;;
22812;SDS011;11573;51.334;3.244;2024-02-26T00:58:51;4.38;;;2.70;;
22812;SDS011;11573;51.334;3.244;2024-02-26T01:01:18;1.25;;;1.08;;
22812;SDS011;11573;51.334;3.244;2024-02-26T01:03:46;10.15;;;3.10;;
22812;SDS011;11573;51.334;3.244;2024-02-26T01:06:13;6.07;;;2.42;;
22812;SDS011;11573;51.334;3.244;2024-02-26T01:08:40;1.35;;;0.55;;
22812;SDS011;11573;51.334;3.244;2024-02-26T01:11:07;1.45;;;1.35;;
22812;SDS011;11573;51.334;3.244;2024-02-26T01:13:34;8.10;;;2.40;;
22812;SDS011;11573;51.334;3.244;2024-02-26T01:16:01;7.05;;;4.55;;
22812;SDS011;11573;51.334;3.244;2024-02-26T01:18:29;3.00;;;1.80;;
22812;SDS011;11573;51.334;3.244;2024-02-26T01:20:56;5.93;;;2.33;;
22812;SDS011;11573;51.334;3.244;2024-02-26T01:23:23;5.35;;;2.90;;
22812;SDS011;11573;51.334;3.244;2024-02-26T01:25:50;6.78;;;2.95;;
22812;SDS011;11573;51.334;3.244;2024-02-26T01:28:18;2.30;;;0.93;;
22812;SDS011;11573;51.334;3.244;2024-02-26T01:30:45;5.47;;;3.67;;
22812;SDS011;11573;51.334;3.244;2024-02-26T01:33:12;0.63;;;0.47;;
22812;SDS011;11573;51.334;3.244;2024-02-26T01:35:39;4.55;;;2.13;;
22812;SDS011;11573;51.334;3.244;2024-02-26T01:38:06;4.40;;;2.60;;
22812;SDS011;11573;51.334;3.244;2024-02-26T01:40:33;8.15;;;3.85;;
22812;SDS011;11573;51.334;3.244;2024-02-26T01:43:01;5.88;;;3.50;;
22812;SDS011;11573;51.334;3.244;2024-02-26T01:45:28;4.65;;;3.60;;
22812;SDS011;11573;51.334;3.244;2024-02-26T01:47:55;6.35;;;3.90;;
22812;SDS011;11573;51.334;3.244;2024-02-26T01:50:23;8.45;;;3.30;;
22812;SDS011;11573;51.334;3.244;2024-02-26T01:52:51;7.32;;;2.20;;
22812;SDS011;11573;51.334;3.244;2024-02-26T01:55:19;4.50;;;3.25;;
22812;SDS011;11573;51.334;3.244;2024-02-26T01:57:49;4.60;;;2.55;;
22812;SDS011;11573;51.334;3.244;2024-02-26T02:00:18;8.50;;;2.67;;
22812;SDS011;11573;51.334;3.244;2024-02-26T02:02:48;5.90;;;3.03;;
22812;SDS011;11573;51.334;3.244;2024-02-26T02:05:16;5.40;;;2.47;;
22812;SDS011;11573;51.334;3.244;2024-02-26T02:07:44;5.63;;;3.25;;
22812;SDS011;11573;51.334;3.244;2024-02-26T02:10:11;7.80;;;4.20;;
22812;SDS011;11573;51.334;3.244;2024-02-26T02:12:39;7.30;;;3.30;;
22812;SDS011;11573;51.334;3.244;2024-02-26T02:15:07;3.92;;;2.95;;
22812;SDS011;11573;51.334;3.244;2024-02-26T02:17:34;3.58;;;2.50;;
22812;SDS011;11573;51.334;3.244;2024-02-26T02:20:02;2.45;;;1.95;;
22812;SDS011;11573;51.334;3.244;2024-02-26T02:22:30;1.23;;;1.13;;
22812;SDS011;11573;51.334;3.244;2024-02-26T02:24:58;2.72;;;1.88;;
22812;SDS011;11573;51.334;3.244;2024-02-26T02:27:27;3.47;;;3.00;;
22812;SDS011;11573;51.334;3.244;2024-02-26T02:29:55;4.75;;;3.53;;
22812;SDS011;11573;51.334;3.244;2024-02-26T02:32:23;12.15;;;6.15;;
22812;SDS011;11573;51.334;3.244;2024-02-26T02:34:51;12.27;;;5.18;;
22812;SDS011;11573;51.334;3.244;2024-02-26T02:37:19;10.40;;;4.35;;
22812;SDS011;11573;51.334;3.244;2024-02-26T02:39:45;7.78;;;4.57;;
22812;SDS011;11573;51.334;3.244;2024-02-26T02:42:12;6.15;;;4.55;;
22812;SDS011;11573;51.334;3.244;2024-02-26T02:44:40;6.25;;;4.32;;
22812;SDS011;11573;51.334;3.244;2024-02-26T02:47:07;15.85;;;5.97;;
22812;SDS011;11573;51.334;3.244;2024-02-26T02:49:34;8.25;;;3.63;;
22812;SDS011;11573;51.334;3.244;2024-02-26T02:52:01;14.45;;;2.50;;
22812;SDS011;11573;51.334;3.244;2024-02-26T02:54:28;9.60;;;6.22;;
22812;SDS011;11573;51.334;3.244;2024-02-26T02:56:55;3.05;;;1.63;;
22812;SDS011;11573;51.334;3.244;2024-02-26T02:59:22;6.38;;;3.30;;
22812;SDS011;11573;51.334;3.244;2024-02-26T03:01:49;8.27;;;4.82;;
22812;SDS011;11573;51.334;3.244;2024-02-26T03:04:16;8.85;;;4.38;;
22812;SDS011;11573;51.334;3.244;2024-02-26T03:06:43;8.45;;;4.93;;
22812;SDS011;11573;51.334;3.244;2024-02-26T03:09:10;10.77;;;4.28;;
22812;SDS011;11573;51.334;3.244;2024-02-26T03:11:37;9.95;;;4.53;;
22812;SDS011;11573;51.334;3.244;2024-02-26T03:14:05;2.13;;;1.92;;
22812;SDS011;11573;51.334;3.244;2024-02-26T03:16:33;12.85;;;4.55;;
22812;SDS011;11573;51.334;3.244;2024-02-26T03:19:00;5.45;;;2.58;;
22812;SDS011;11573;51.334;3.244;2024-02-26T03:21:27;4.57;;;2.72;;
22812;SDS011;11573;51.334;3.244;2024-02-26T03:23:54;5.30;;;1.52;;
22812;SDS011;11573;51.334;3.244;2024-02-26T03:26:21;5.40;;;3.15;;
22812;SDS011;11573;51.334;3.244;2024-02-26T03:28:48;9.73;;;4.40;;
22812;SDS011;11573;51.334;3.244;2024-02-26T03:31:15;5.75;;;4.22;;
22812;SDS011;11573;51.334;3.244;2024-02-26T03:33:42;14.05;;;5.50;;
22812;SDS011;11573;51.334;3.244;2024-02-26T03:36:09;11.27;;;5.38;;
22812;SDS011;11573;51.334;3.244;2024-02-26T03:38:37;8.75;;;4.70;;
22812;SDS011;11573;51.334;3.244;2024-02-26T03:41:05;13.55;;;5.13;;
22812;SDS011;11573;51.334;3.244;2024-02-26T03:43:32;10.45;;;5.07;;
22812;SDS011;11573;51.334;3.244;2024-02-26T03:45:58;16.23;;;4.43;;
22812;SDS011;11573;51.334;3.244;2024-02-26T03:48:26;3.10;;;2.10;;
22812;SDS011;11573;51.334;3.244;2024-02-26T03:50:53;9.70;;;4.07;;
22812;SDS011;11573;51.334;3.244;2024-02-26T03:53:20;11.23;;;4.72;;
22812;SDS011;11573;51.334;3.244;2024-02-26T03:55:47;6.88;;;2.85;;
22812;SDS011;11573;51.334;3.244;2024-02-26T03:58:15;5.18;;;2.65;;
22812;SDS011;11573;51.334;3.244;2024-02-26T04:00:42;15.10;;;5.95;;
22812;SDS011;11573;51.334;3.244;2024-02-26T04:03:10;9.77;;;3.88;;
22812;SDS011;11573;51.334;3.244;2024-02-26T04:05:37;11.70;;;5.40;;
22812;SDS011;11573;51.334;3.244;2024-02-26T04:08:04;11.98;;;5.80;;
22812;SDS011;11573;51.334;3.244;2024-02-26T04:10:33;10.80;;;5.13;;
22812;SDS011;11573;51.334;3.244;2024-02-26T04:13:07;6.57;;;3.88;;
22812;SDS011;11573;51.334;3.244;2024-02-26T04:15:34;2.60;;;1.77;;
22812;SDS011;11573;51.334;3.244;2024-02-26T04:18:01;7.95;;;4.53;;
22812;SDS011;11573;51.334;3.244;2024-02-26T04:20:29;7.70;;;2.97;;
22812;SDS011;11573;51.334;3.244;2024-02-26T04:22:56;5.20;;;2.85;;
22812;SDS011;11573;51.334;3.244;2024-02-26T04:25:24;10.50;;;4.40;;
22812;SDS011;11573;51.334;3.244;2024-02-26T04:27:51;4.63;;;3.00;;
22812;SDS011;11573;51.334;3.244;2024-02-26T04:30:17;4.65;;;2.78;;
22812;SDS011;11573;51.334;3.244;2024-02-26T04:32:45;5.18;;;3.03;;
22812;SDS011;11573;51.334;3.244;2024-02-26T04:35:12;9.90;;;4.47;;
22812;SDS011;11573;51.334;3.244;2024-02-26T04:37:39;3.03;;;1.13;;
22812;SDS011;11573;51.334;3.244;2024-02-26T04:40:06;12.43;;;5.38;;
22812;SDS011;11573;51.334;3.244;2024-02-26T04:42:34;5.53;;;3.55;;
22812;SDS011;11573;51.334;3.244;2024-02-26T04:45:01;7.13;;;3.90;;
22812;SDS011;11573;51.334;3.244;2024-02-26T04:47:28;9.60;;;3.97;;
22812;SDS011;11573;51.334;3.244;2024-02-26T04:49:56;12.35;;;2.88;;
22812;SDS011;11573;51.334;3.244;2024-02-26T04:52:23;3.80;;;2.78;;
22812;SDS011;11573;51.334;3.244;2024-02-26T04:54:50;12.60;;;5.20;;
22812;SDS011;11573;51.334;3.244;2024-02-26T04:57:17;24.23;;;5.93;;
22812;SDS011;11573;51.334;3.244;2024-02-26T04:59:45;16.35;;;5.28;;
22812;SDS011;11573;51.334;3.244;2024-02-26T05:02:13;8.40;;;5.00;;
22812;SDS011;11573;51.334;3.244;2024-02-26T05:04:40;7.45;;;3.83;;
22812;SDS011;11573;51.334;3.244;2024-02-26T05:07:07;17.50;;;8.27;;
22812;SDS011;11573;51.334;3.244;2024-02-26T05:09:35;17.98;;;6.85;;
22812;SDS011;11573;51.334;3.244;2024-02-26T05:12:02;11.95;;;7.65;;
22812;SDS011;11573;51.334;3.244;2024-02-26T05:14:30;10.32;;;4.72;;
22812;SDS011;11573;51.334;3.244;2024-02-26T05:16:57;11.35;;;3.35;;
22812;SDS011;11573;51.334;3.244;2024-02-26T05:19:24;22.65;;;6.30;;
22812;SDS011;11573;51.334;3.244;2024-02-26T05:21:51;8.38;;;3.63;;
22812;SDS011;11573;51.334;3.244;2024-02-26T05:24:18;11.52;;;5.93;;
22812;SDS011;11573;51.334;3.244;2024-02-26T05:26:49;13.75;;;7.40;;
22812;SDS011;11573;51.334;3.244;2024-02-26T05:29:16;5.22;;;2.78;;
22812;SDS011;11573;51.334;3.244;2024-02-26T05:31:43;22.42;;;7.97;;
22812;SDS011;11573;51.334;3.244;2024-02-26T05:34:10;14.25;;;7.53;;
22812;SDS011;11573;51.334;3.244;2024-02-26T05:36:37;8.75;;;3.88;;
22812;SDS011;11573;51.334;3.244;2024-02-26T05:39:05;11.35;;;5.00;;
22812;SDS011;11573;51.334;3.244;2024-02-26T05:41:32;14.40;;;7.30;;
22812;SDS011;11573;51.334;3.244;2024-02-26T05:43:59;9.05;;;5.05;;
22812;SDS011;11573;51.334;3.244;2024-02-26T05:46:26;7.25;;;4.28;;
22812;SDS011;11573;51.334;3.244;2024-02-26T05:48:53;5.30;;;4.00;;
22812;SDS011;11573;51.334;3.244;2024-02-26T05:51:21;6.32;;;2.95;;
22812;SDS011;11573;51.334;3.244;2024-02-26T05:53:48;9.55;;;5.30;;
22812;SDS011;11573;51.334;3.244;2024-02-26T05:56:24;5.65;;;3.28;;
22812;SDS011;11573;51.334;3.244;2024-02-26T05:58:51;9.55;;;4.72;;
22812;SDS011;11573;51.334;3.244;2024-02-26T06:01:19;12.60;;;4.50;;
22812;SDS011;11573;51.334;3.244;2024-02-26T06:03:46;8.68;;;4.93;;
22812;SDS011;11573;51.334;3.244;2024-02-26T06:06:13;20.15;;;5.43;;
22812;SDS011;11573;51.334;3.244;2024-02-26T06:08:42;13.63;;;3.63;;
22812;SDS011;11573;51.334;3.244;2024-02-26T06:11:09;6.30;;;3.78;;
22812;SDS011;11573;51.334;3.244;2024-02-26T06:13:36;6.50;;;3.63;;
22812;SDS011;11573;51.334;3.244;2024-02-26T06:16:03;17.02;;;4.88;;
22812;SDS011;11573;51.334;3.244;2024-02-26T06:18:31;8.00;;;3.75;;
22812;SDS011;11573;51.334;3.244;2024-02-26T06:20:58;9.48;;;4.05;;
22812;SDS011;11573;51.334;3.244;2024-02-26T06:23:25;11.82;;;3.80;;
22812;SDS011;11573;51.334;3.244;2024-02-26T06:25:52;5.35;;;0.73;;
22812;SDS011;11573;51.334;3.244;2024-02-26T06:28:19;3.42;;;2.53;;
22812;SDS011;11573;51.334;3.244;2024-02-26T06:30:46;11.27;;;4.57;;
22812;SDS011;11573;51.334;3.244;2024-02-26T06:33:13;8.82;;;3.28;;
22812;SDS011;11573;51.334;3.244;2024-02-26T06:35:41;5.28;;;3.25;;
22812;SDS011;11573;51.334;3.244;2024-02-26T06:38:08;9.32;;;4.82;;
22812;SDS011;11573;51.334;3.244;2024-02-26T06:40:36;6.75;;;4.35;;
22812;SDS011;11573;51.334;3.244;2024-02-26T06:43:03;9.75;;;3.70;;
22812;SDS011;11573;51.334;3.244;2024-02-26T06:45:30;2.30;;;1.95;;
22812;SDS011;11573;51.334;3.244;2024-02-26T06:47:57;12.40;;;4.25;;
22812;SDS011;11573;51.334;3.244;2024-02-26T06:50:26;9.85;;;3.45;;
22812;SDS011;11573;51.334;3.244;2024-02-26T06:52:52;11.85;;;3.40;;
22812;SDS011;11573;51.334;3.244;2024-02-26T06:55:19;19.52;;;5.13;;
22812;SDS011;11573;51.334;3.244;2024-02-26T06:57:46;24.35;;;4.63;;
22812;SDS011;11573;51.334;3.244;2024-02-26T07:00:14;13.30;;;4.00;;
22812;SDS011;11573;51.334;3.244;2024-02-26T07:02:43;18.35;;;4.30;;
22812;SDS011;11573;51.334;3.244;2024-02-26T07:05:10;12.15;;;2.55;;
22812;SDS011;11573;51.334;3.244;2024-02-26T07:07:37;5.63;;;2.70;;
22812;SDS011;11573;51.334;3.244;2024-02-26T07:10:05;6.00;;;3.17;;
22812;SDS011;11573;51.334;3.244;2024-02-26T07:12:32;11.57;;;4.45;;
22812;SDS011;11573;51.334;3.244;2024-02-26T07:15:00;11.55;;;3.45;;
22812;SDS011;11573;51.334;3.244;2024-02-26T07:17:27;6.80;;;2.05;;
22812;SDS011;11573;51.334;3.244;2024-02-26T07:19:55;2.05;;;1.58;;
22812;SDS011;11573;51.334;3.244;2024-02-26T07:22:23;9.45;;;3.35;;
22812;SDS011;11573;51.334;3.244;2024-02-26T07:24:50;8.85;;;2.75;;
22812;SDS011;11573;51.334;3.244;2024-02-26T07:27:18;3.65;;;2.58;;
22812;SDS011;11573;51.334;3.244;2024-02-26T07:29:45;3.67;;;2.35;;
22812;SDS011;11573;51.334;3.244;2024-02-26T07:32:13;6.35;;;2.92;;
22812;SDS011;11573;51.334;3.244;2024-02-26T07:34:40;2.42;;;1.00;;
22812;SDS011;11573;51.334;3.244;2024-02-26T07:37:11;7.43;;;3.63;;
22812;SDS011;11573;51.334;3.244;2024-02-26T07:39:38;1.85;;;1.67;;
22812;SDS011;11573;51.334;3.244;2024-02-26T07:42:05;4.68;;;1.80;;
22812;SDS011;11573;51.334;3.244;2024-02-26T07:44:33;8.45;;;3.63;;
22812;SDS011;11573;51.334;3.244;2024-02-26T07:47:00;3.53;;;2.63;;
22812;SDS011;11573;51.334;3.244;2024-02-26T07:49:27;22.42;;;6.05;;
22812;SDS011;11573;51.334;3.244;2024-02-26T07:51:54;6.82;;;3.47;;
22812;SDS011;11573;51.334;3.244;2024-02-26T07:54:24;2.67;;;2.13;;
22812;SDS011;11573;51.334;3.244;2024-02-26T07:56:51;5.47;;;3.35;;
22812;SDS011;11573;51.334;3.244;2024-02-26T07:59:19;6.93;;;2.33;;
22812;SDS011;11573;51.334;3.244;2024-02-26T08:01:52;3.55;;;2.55;;
22812;SDS011;11573;51.334;3.244;2024-02-26T08:04:24;6.30;;;2.95;;
22812;SDS011;11573;51.334;3.244;2024-02-26T08:06:53;3.30;;;2.22;;
22812;SDS011;11573;51.334;3.244;2024-02-26T08:09:20;13.10;;;5.82;;
22812;SDS011;11573;51.334;3.244;2024-02-26T08:11:47;13.02;;;6.55;;
22812;SDS011;11573;51.334;3.244;2024-02-26T08:14:14;7.38;;;3.70;;
22812;SDS011;11573;51.334;3.244;2024-02-26T08:16:41;8.85;;;4.30;;
22812;SDS011;11573;51.334;3.244;2024-02-26T08:19:08;9.98;;;4.95;;
22812;SDS011;11573;51.334;3.244;2024-02-26T08:21:38;7.72;;;4.78;;
22812;SDS011;11573;51.334;3.244;2024-02-26T08:24:05;12.57;;;5.60;;
22812;SDS011;11573;51.334;3.244;2024-02-26T08:26:32;20.23;;;8.77;;
22812;SDS011;11573;51.334;3.244;2024-02-26T08:28:59;11.25;;;5.45;;
22812;SDS011;11573;51.334;3.244;2024-02-26T08:31:26;13.10;;;5.22;;
22812;SDS011;11573;51.334;3.244;2024-02-26T08:33:54;9.85;;;5.70;;
22812;SDS011;11573;51.334;3.244;2024-02-26T08:36:21;18.23;;;8.38;;
22812;SDS011;11573;51.334;3.244;2024-02-26T08:38:49;21.98;;;8.75;;
22812;SDS011;11573;51.334;3.244;2024-02-26T08:41:16;20.33;;;7.43;;
22812;SDS011;11573;51.334;3.244;2024-02-26T08:43:42;8.55;;;4.93;;
22812;SDS011;11573;51.334;3.244;2024-02-26T08:46:10;13.48;;;4.82;;
22812;SDS011;11573;51.334;3.244;2024-02-26T08:48:39;10.15;;;3.95;;
22812;SDS011;11573;51.334;3.244;2024-02-26T08:51:07;2.65;;;1.30;;
22812;SDS011;11573;51.334;3.244;2024-02-26T08:53:35;19.50;;;6.45;;
22812;SDS011;11573;51.334;3.244;2024-02-26T08:56:09;22.45;;;8.65;;
22812;SDS011;11573;51.334;3.244;2024-02-26T08:58:43;11.52;;;6.90;;
22812;SDS011;11573;51.334;3.244;2024-02-26T09:01:10;15.13;;;7.47;;
22812;SDS011;11573;51.334;3.244;2024-02-26T09:03:38;12.10;;;4.38;;
22812;SDS011;11573;51.334;3.244;2024-02-26T09:06:05;18.90;;;8.40;;
22812;SDS011;11573;51.334;3.244;2024-02-26T09:08:33;20.13;;;7.63;;
22812;SDS011;11573;51.334;3.244;2024-02-26T09:11:02;21.40;;;9.63;;
22812;SDS011;11573;51.334;3.244;2024-02-26T09:13:30;27.42;;;14.20;;
22812;SDS011;11573;51.334;3.244;2024-02-26T09:15:57;19.45;;;10.13;;
22812;SDS011;11573;51.334;3.244;2024-02-26T09:18:25;25.00;;;13.23;;
22812;SDS011;11573;51.334;3.244;2024-02-26T09:20:53;23.58;;;12.45;;
22812;SDS011;11573;51.334;3.244;2024-02-26T09:23:20;25.23;;;11.45;;
22812;SDS011;11573;51.334;3.244;2024-02-26T09:25:46;30.27;;;15.93;;
22812;SDS011;11573;51.334;3.244;2024-02-26T09:28:14;16.75;;;9.18;;
22812;SDS011;11573;51.334;3.244;2024-02-26T09:30:43;25.70;;;13.00;;
22812;SDS011;11573;51.334;3.244;2024-02-26T09:33:11;16.17;;;9.48;;
22812;SDS011;11573;51.334;3.244;2024-02-26T09:35:39;20.92;;;11.30;;
22812;SDS011;11573;51.334;3.244;2024-02-26T09:38:07;24.73;;;8.85;;
22812;SDS011;11573;51.334;3.244;2024-02-26T09:40:35;19.73;;;9.75;;
22812;SDS011;11573;51.334;3.244;2024-02-26T09:43:04;18.10;;;10.05;;
22812;SDS011;11573;51.334;3.244;2024-02-26T09:45:32;24.92;;;12.45;;
22812;SDS011;11573;51.334;3.244;2024-02-26T09:48:00;22.00;;;9.60;;
22812;SDS011;11573;51.334;3.244;2024-02-26T09:50:31;16.27;;;7.88;;
22812;SDS011;11573;51.334;3.244;2024-02-26T09:52:58;23.13;;;8.38;;
22812;SDS011;11573;51.334;3.244;2024-02-26T09:55:28;19.33;;;10.88;;
22812;SDS011;11573;51.334;3.244;2024-02-26T09:57:55;20.42;;;10.68;;
22812;SDS011;11573;51.334;3.244;2024-02-26T10:00:24;22.67;;;10.75;;
22812;SDS011;11573;51.334;3.244;2024-02-26T10:02:55;21.05;;;8.27;;
22812;SDS011;11573;51.334;3.244;2024-02-26T10:05:27;16.20;;;7.38;;
22812;SDS011;11573;51.334;3.244;2024-02-26T10:07:56;19.63;;;11.35;;
22812;SDS011;11573;51.334;3.244;2024-02-26T10:10:24;20.35;;;9.18;;
22812;SDS011;11573;51.334;3.244;2024-02-26T10:12:51;23.38;;;11.13;;
22812;SDS011;11573;51.334;3.244;2024-02-26T10:15:19;13.32;;;8.07;;
22812;SDS011;11573;51.334;3.244;2024-02-26T10:17:46;12.35;;;8.65;;
22812;SDS011;11573;51.334;3.244;2024-02-26T10:20:14;23.73;;;9.63;;
22812;SDS011;11573;51.334;3.244;2024-02-26T10:22:46;19.40;;;6.63;;
22812;SDS011;11573;51.334;3.244;2024-02-26T10:25:13;9.27;;;7.05;;
22812;SDS011;11573;51.334;3.244;2024-02-26T10:27:41;12.98;;;7.50;;
22812;SDS011;11573;51.334;3.244;2024-02-26T10:30:21;15.52;;;6.13;;
22812;SDS011;11573;51.334;3.244;2024-02-26T10:32:50;11.68;;;4.93;;
22812;SDS011;11573;51.334;3.244;2024-02-26T10:35:17;5.75;;;3.85;;
22812;SDS011;11573;51.334;3.244;2024-02-26T10:37:47;16.65;;;6.18;;
22812;SDS011;11573;51.334;3.244;2024-02-26T10:40:15;12.93;;;4.32;;
22812;SDS011;11573;51.334;3.244;2024-02-26T10:42:43;10.45;;;4.60;;
22812;SDS011;11573;51.334;3.244;2024-02-26T10:45:12;11.75;;;6.78;;
22812;SDS011;11573;51.334;3.244;2024-02-26T10:47:40;10.02;;;4.63;;
22812;SDS011;11573;51.334;3.244;2024-02-26T10:50:08;12.25;;;6.30;;
22812;SDS011;11573;51.334;3.244;2024-02-26T10:52:36;5.63;;;4.35;;
22812;SDS011;11573;51.334;3.244;2024-02-26T10:55:04;16.20;;;6.75;;
22812;SDS011;11573;51.334;3.244;2024-02-26T10:57:38;17.45;;;6.25;;
22812;SDS011;11573;51.334;3.244;2024-02-26T11:00:07;23.70;;;7.85;;
22812;SDS011;11573;51.334;3.244;2024-02-26T11:02:39;18.38;;;6.20;;
22812;SDS011;11573;51.334;3.244;2024-02-26T11:05:07;13.55;;;5.78;;
22812;SDS011;11573;51.334;3.244;2024-02-26T11:07:35;11.60;;;4.45;;
22812;SDS011;11573;51.334;3.244;2024-02-26T11:10:03;14.45;;;4.75;;
22812;SDS011;11573;51.334;3.244;2024-02-26T11:12:32;14.07;;;4.65;;
22812;SDS011;11573;51.334;3.244;2024-02-26T11:15:02;7.97;;;3.53;;
22812;SDS011;11573;51.334;3.244;2024-02-26T11:17:30;9.18;;;4.07;;
22812;SDS011;11573;51.334;3.244;2024-02-26T11:19:59;5.82;;;3.72;;
22812;SDS011;11573;51.334;3.244;2024-02-26T11:22:26;11.55;;;3.20;;
22812;SDS011;11573;51.334;3.244;2024-02-26T11:24:54;7.88;;;2.97;;
22812;SDS011;11573;51.334;3.244;2024-02-26T11:27:25;14.68;;;4.60;;
22812;SDS011;11573;51.334;3.244;2024-02-26T11:29:57;9.30;;;3.25;;
22812;SDS011;11573;51.334;3.244;2024-02-26T11:32:27;15.73;;;4.00;;
22812;SDS011;11573;51.334;3.244;2024-02-26T11:34:57;3.22;;;2.15;;
22812;SDS011;11573;51.334;3.244;2024-02-26T11:37:25;10.68;;;3.85;;
22812;SDS011;11573;51.334;3.244;2024-02-26T11:39:52;7.43;;;2.80;;
22812;SDS011;11573;51.334;3.244;2024-02-26T11:42:22;10.80;;;4.45;;
22812;SDS011;11573;51.334;3.244;2024-02-26T11:44:52;18.85;;;4.88;;
22812;SDS011;11573;51.334;3.244;2024-02-26T11:47:20;15.60;;;3.45;;
22812;SDS011;11573;51.334;3.244;2024-02-26T11:49:48;13.98;;;5.63;;
22812;SDS011;11573;51.334;3.244;2024-02-26T11:52:16;16.77;;;3.53;;
22812;SDS011;11573;51.334;3.244;2024-02-26T11:54:47;7.80;;;2.80;;
22812;SDS011;11573;51.334;3.244;2024-02-26T11:59:53;9.50;;;2.58;;
22812;SDS011;11573;51.334;3.244;2024-02-26T12:05:25;18.73;;;4.35;;
22812;SDS011;11573;51.334;3.244;2024-02-26T12:08:05;5.38;;;2.92;;
22812;SDS011;11573;51.334;3.244;2024-02-26T12:10:35;15.77;;;4.50;;
22812;SDS011;11573;51.334;3.244;2024-02-26T12:15:37;8.88;;;3.65;;
22812;SDS011;11573;51.334;3.244;2024-02-26T12:18:06;7.57;;;3.58;;
22812;SDS011;11573;51.334;3.244;2024-02-26T12:20:34;12.05;;;4.18;;
22812;SDS011;11573;51.334;3.244;2024-02-26T12:23:04;11.77;;;3.08;;
22812;SDS011;11573;51.334;3.244;2024-02-26T12:25:32;17.33;;;5.18;;
22812;SDS011;11573;51.334;3.244;2024-02-26T12:27:59;8.93;;;3.42;;
22812;SDS011;11573;51.334;3.244;2024-02-26T12:30:27;3.58;;;2.83;;
22812;SDS011;11573;51.334;3.244;2024-02-26T12:32:59;13.63;;;4.20;;
22812;SDS011;11573;51.334;3.244;2024-02-26T12:35:28;11.30;;;4.53;;
22812;SDS011;11573;51.334;3.244;2024-02-26T12:37:57;14.43;;;3.90;;
22812;SDS011;11573;51.334;3.244;2024-02-26T12:40:25;3.75;;;2.70;;
22812;SDS011;11573;51.334;3.244;2024-02-26T12:42:53;4.63;;;2.42;;
22812;SDS011;11573;51.334;3.244;2024-02-26T12:45:21;4.28;;;2.03;;
22812;SDS011;11573;51.334;3.244;2024-02-26T12:47:48;10.40;;;3.92;;
22812;SDS011;11573;51.334;3.244;2024-02-26T12:50:16;7.07;;;2.67;;
22812;SDS011;11573;51.334;3.244;2024-02-26T12:52:44;1.80;;;1.17;;
22812;SDS011;11573;51.334;3.244;2024-02-26T12:55:16;12.63;;;3.03;;
22812;SDS011;11573;51.334;3.244;2024-02-26T12:57:46;5.90;;;2.45;;
22812;SDS011;11573;51.334;3.244;2024-02-26T13:00:16;6.40;;;1.88;;
22812;SDS011;11573;51.334;3.244;2024-02-26T13:02:45;7.35;;;2.33;;
22812;SDS011;11573;51.334;3.244;2024-02-26T13:05:13;4.07;;;1.75;;
22812;SDS011;11573;51.334;3.244;2024-02-26T13:07:41;12.43;;;3.13;;
22812;SDS011;11573;51.334;3.244;2024-02-26T13:10:10;13.27;;;3.25;;
22812;SDS011;11573;51.334;3.244;2024-02-26T13:12:43;9.18;;;2.83;;
22812;SDS011;11573;51.334;3.244;2024-02-26T13:15:18;10.07;;;3.53;;
22812;SDS011;11573;51.334;3.244;2024-02-26T13:17:49;4.53;;;2.05;;
22812;SDS011;11573;51.334;3.244;2024-02-26T13:20:26;10.43;;;2.15;;
22812;SDS011;11573;51.334;3.244;2024-02-26T13:23:00;11.23;;;2.47;;
22812;SDS011;11573;51.334;3.244;2024-02-26T13:25:28;2.10;;;1.52;;
22812;SDS011;11573;51.334;3.244;2024-02-26T13:30:53;5.43;;;2.22;;
22812;SDS011;11573;51.334;3.244;2024-02-26T13:33:26;5.53;;;2.10;;
22812;SDS011;11573;51.334;3.244;2024-02-26T13:35:56;15.00;;;3.75;;
22812;SDS011;11573;51.334;3.244;2024-02-26T13:38:24;9.80;;;2.33;;
22812;SDS011;11573;51.334;3.244;2024-02-26T13:40:51;15.35;;;3.67;;
22812;SDS011;11573;51.334;3.244;2024-02-26T13:43:19;12.93;;;3.70;;
22812;SDS011;11573;51.334;3.244;2024-02-26T13:45:47;7.68;;;2.80;;
22812;SDS011;11573;51.334;3.244;2024-02-26T13:48:17;13.02;;;3.65;;
22812;SDS011;11573;51.334;3.244;2024-02-26T13:50:44;8.73;;;2.65;;
22812;SDS011;11573;51.334;3.244;2024-02-26T13:53:13;12.68;;;2.47;;
22812;SDS011;11573;51.334;3.244;2024-02-26T13:55:40;8.98;;;3.60;;
22812;SDS011;11573;51.334;3.244;2024-02-26T13:58:13;16.00;;;3.38;;
22812;SDS011;11573;51.334;3.244;2024-02-26T14:00:41;13.80;;;3.85;;
22812;SDS011;11573;51.334;3.244;2024-02-26T14:03:09;5.60;;;2.35;;
22812;SDS011;11573;51.334;3.244;2024-02-26T14:05:36;34.05;;;5.78;;
22812;SDS011;11573;51.334;3.244;2024-02-26T14:08:04;15.18;;;3.97;;
22812;SDS011;11573;51.334;3.244;2024-02-26T14:10:32;11.07;;;3.72;;
22812;SDS011;11573;51.334;3.244;2024-02-26T14:12:59;7.45;;;2.05;;
22812;SDS011;11573;51.334;3.244;2024-02-26T14:15:27;10.32;;;3.47;;
22812;SDS011;11573;51.334;3.244;2024-02-26T14:17:55;17.27;;;4.28;;
22812;SDS011;11573;51.334;3.244;2024-02-26T14:20:23;15.23;;;2.05;;
22812;SDS011;11573;51.334;3.244;2024-02-26T14:22:51;12.85;;;5.05;;
22812;SDS011;11573;51.334;3.244;2024-02-26T14:25:21;13.57;;;3.53;;
22812;SDS011;11573;51.334;3.244;2024-02-26T14:27:49;24.30;;;4.38;;
22812;SDS011;11573;51.334;3.244;2024-02-26T14:30:16;22.73;;;4.15;;
22812;SDS011;11573;51.334;3.244;2024-02-26T14:32:43;23.25;;;5.78;;
22812;SDS011;11573;51.334;3.244;2024-02-26T14:35:10;28.92;;;3.72;;
22812;SDS011;11573;51.334;3.244;2024-02-26T14:37:43;19.77;;;4.35;;
22812;SDS011;11573;51.334;3.244;2024-02-26T14:40:15;18.15;;;4.15;;
22812;SDS011;11573;51.334;3.244;2024-02-26T14:42:42;8.75;;;2.65;;
22812;SDS011;11573;51.334;3.244;2024-02-26T14:45:10;17.05;;;4.82;;
22812;SDS011;11573;51.334;3.244;2024-02-26T14:47:38;6.28;;;1.65;;
22812;SDS011;11573;51.334;3.244;2024-02-26T14:50:05;13.23;;;4.18;;
22812;SDS011;11573;51.334;3.244;2024-02-26T14:52:33;19.85;;;3.05;;
22812;SDS011;11573;51.334;3.244;2024-02-26T14:55:00;19.33;;;5.00;;
22812;SDS011;11573;51.334;3.244;2024-02-26T14:57:27;17.40;;;3.22;;